Time;durP1;ratioP1;P1;durP2;ratioP2;P2;SDS_P1;SDS_P2;PMS_P1;PMS_P2;Temp;Humidity;BMP_temperature;BMP_pressure;BME280_temperature;BME280_humidity;BME280_pressure;Samples;Min_cycle;Max_cycle;Signal;HPM_P1;HPM_P2
2022/06/29 00:01:54;;;;;;;1.30;0.47;;;16.60;99.90;;;;;;4930406;28;20516;-75
2022/06/29 00:04:20;;;;;;;0.08;0.08;;;16.50;99.90;;;;;;4929555;29;20027;-76
2022/06/29 00:06:46;;;;;;;0.00;0.00;;;16.50;99.90;;;;;;4929573;28;20122;-76
2022/06/29 00:09:11;;;;;;;0.10;0.10;;;16.50;99.90;;;;;;4930398;29;20027;-75
2022/06/29 00:11:37;;;;;;;0.63;0.63;;;16.40;99.90;;;;;;4929663;29;20063;-76
2022/06/29 00:14:03;;;;;;;0.30;0.30;;;16.40;99.90;;;;;;4934663;28;20047;-76
2022/06/29 00:16:28;;;;;;;0.00;0.00;;;16.40;99.90;;;;;;4929387;28;20046;-75
2022/06/29 00:18:55;;;;;;;26.97;1.20;;;16.30;99.90;;;;;;4927259;28;20067;-75
2022/06/29 00:21:21;;;;;;;0.08;0.08;;;16.30;99.90;;;;;;4927971;28;20036;-75
2022/06/29 00:23:46;;;;;;;0.10;0.10;;;16.20;99.90;;;;;;4929658;29;20500;-75
2022/06/29 00:26:12;;;;;;;0.10;0.10;;;16.20;99.90;;;;;;4930659;28;20115;-75
2022/06/29 00:28:38;;;;;;;0.20;0.20;;;16.20;99.90;;;;;;4930739;28;20050;-74
2022/06/29 00:31:03;;;;;;;0.10;0.10;;;16.10;99.90;;;;;;4928757;29;20039;-75
2022/06/29 00:33:29;;;;;;;0.10;0.10;;;16.00;99.90;;;;;;4929539;28;21837;-76
2022/06/29 00:35:55;;;;;;;0.00;0.00;;;15.90;99.90;;;;;;4929425;29;20621;-75
2022/06/29 00:38:21;;;;;;;0.00;0.00;;;15.90;99.90;;;;;;4928703;28;20118;-76
2022/06/29 00:40:46;;;;;;;0.10;0.10;;;15.90;99.90;;;;;;4928465;28;20035;-75
2022/06/29 00:43:12;;;;;;;0.30;0.30;;;15.90;99.90;;;;;;4928704;29;20805;-75
2022/06/29 00:45:38;;;;;;;0.20;0.20;;;15.80;99.90;;;;;;4932590;28;20058;-75
2022/06/29 00:48:04;;;;;;;0.00;0.00;;;15.70;99.90;;;;;;4928876;28;20032;-75
2022/06/29 00:50:32;;;;;;;0.20;0.20;;;15.60;99.90;;;;;;4941359;28;20031;-75
2022/06/29 00:53:03;;;;;;;0.10;0.10;;;15.60;99.90;;;;;;4944335;29;20066;-75
2022/06/29 00:55:32;;;;;;;0.00;0.00;;;15.70;99.90;;;;;;4927909;28;20090;-75
2022/06/29 00:58:05;;;;;;;0.00;0.00;;;15.70;99.90;;;;;;4927889;29;20050;-75
2022/06/29 01:00:32;;;;;;;8.10;0.38;;;15.70;99.90;;;;;;4928443;29;20047;-75
2022/06/29 01:02:59;;;;;;;;;;;15.60;99.90;;;;;;4929710;29;20045;-75
2022/06/29 01:05:26;;;;;;;0.10;0.10;;;15.50;99.90;;;;;;4928163;28;20029;-75
2022/06/29 01:07:52;;;;;;;0.03;0.03;;;15.50;99.90;;;;;;4928510;28;20031;-75
2022/06/29 01:10:19;;;;;;;0.47;0.47;;;15.50;99.90;;;;;;4929315;29;20494;-75
2022/06/29 01:12:48;;;;;;;0.00;0.00;;;15.40;99.90;;;;;;4928066;29;20046;-75
2022/06/29 01:15:14;;;;;;;0.00;0.00;;;15.40;99.90;;;;;;4929044;29;20059;-75
2022/06/29 01:20:22;;;;;;;0.00;0.00;;;15.30;99.90;;;;;;5084915;27;20436;-74
2022/06/29 01:22:47;;;;;;;0.10;0.10;;;15.20;99.90;;;;;;5069108;28;20123;-74
2022/06/29 01:25:13;;;;;;;1.23;0.70;;;15.20;99.90;;;;;;5068304;28;20039;-74
2022/06/29 01:27:39;;;;;;;0.00;0.00;;;15.10;99.90;;;;;;5072532;28;20051;-74
2022/06/29 01:30:09;;;;;;;0.00;0.00;;;15.10;99.90;;;;;;5069529;28;20947;-74
2022/06/29 01:32:38;;;;;;;0.00;0.00;;;15.10;99.90;;;;;;5067831;28;20036;-74
2022/06/29 01:35:06;;;;;;;0.00;0.00;;;15.00;99.90;;;;;;5079499;28;21200;-74
2022/06/29 01:37:32;;;;;;;0.25;0.25;;;15.00;99.90;;;;;;5068419;28;20333;-74
2022/06/29 01:39:58;;;;;;;0.17;0.17;;;15.00;99.90;;;;;;5052866;28;20754;-74
2022/06/29 01:42:23;;;;;;;0.30;0.28;;;15.10;99.90;;;;;;5067867;28;20442;-74
2022/06/29 01:44:49;;;;;;;0.20;0.20;;;15.00;99.90;;;;;;5066270;28;20033;-74
2022/06/29 01:47:14;;;;;;;0.10;0.10;;;14.90;99.90;;;;;;5067571;28;20032;-74
2022/06/29 01:49:40;;;;;;;0.10;0.10;;;15.00;99.90;;;;;;5067436;28;20395;-74
2022/06/29 01:52:06;;;;;;;0.10;0.10;;;14.90;99.90;;;;;;5069461;28;20393;-74
2022/06/29 01:54:32;;;;;;;0.08;0.08;;;14.90;99.90;;;;;;5067720;28;20055;-75
2022/06/29 01:56:57;;;;;;;0.08;0.08;;;15.00;99.90;;;;;;5068752;28;20025;-74
2022/06/29 01:59:23;;;;;;;0.13;0.13;;;15.00;99.90;;;;;;5067400;28;20036;-75
2022/06/29 02:01:49;;;;;;;0.10;0.10;;;14.90;99.90;;;;;;5068315;28;20487;-75
2022/06/29 02:04:15;;;;;;;0.13;0.13;;;14.90;99.90;;;;;;5066893;28;20025;-74
2022/06/29 02:06:41;;;;;;;0.10;0.10;;;14.90;99.90;;;;;;5067061;28;20043;-74
2022/06/29 02:09:06;;;;;;;0.00;0.00;;;14.80;99.90;;;;;;5066217;28;20041;-74
2022/06/29 02:11:32;;;;;;;2.20;1.05;;;14.90;99.90;;;;;;5070737;28;20039;-74
2022/06/29 02:13:58;;;;;;;0.10;0.10;;;14.80;99.90;;;;;;5066356;28;20059;-74
2022/06/29 02:16:23;;;;;;;0.00;0.00;;;14.80;99.90;;;;;;5067202;28;20024;-74
2022/06/29 02:18:49;;;;;;;0.00;0.00;;;14.80;99.90;;;;;;5065598;28;20132;-74
2022/06/29 02:21:15;;;;;;;0.00;0.00;;;14.80;99.90;;;;;;5067911;28;20895;-75
2022/06/29 02:23:40;;;;;;;0.20;0.20;;;14.80;99.90;;;;;;5067724;28;20678;-74
2022/06/29 02:26:06;;;;;;;0.00;0.00;;;14.90;99.90;;;;;;5066884;28;20307;-74
2022/06/29 02:28:32;;;;;;;0.00;0.00;;;15.00;99.90;;;;;;5069086;28;20025;-75
2022/06/29 02:36:27;;;;;;;0.10;0.10;;;14.80;99.90;;;;;;5061429;28;20071;-75
2022/06/29 02:38:52;;;;;;;0.10;0.10;;;14.90;99.90;;;;;;5063034;28;20132;-75
2022/06/29 02:41:18;;;;;;;0.10;0.10;;;14.80;99.90;;;;;;5061744;28;20084;-75
2022/06/29 02:43:45;;;;;;;0.10;0.10;;;14.80;99.90;;;;;;5062392;28;20110;-75
2022/06/29 02:46:11;;;;;;;0.00;0.00;;;14.70;99.90;;;;;;5062265;28;20025;-75
2022/06/29 02:48:37;;;;;;;0.10;0.10;;;14.70;99.90;;;;;;5063973;28;20028;-75
2022/06/29 02:51:03;;;;;;;1.67;0.52;;;14.60;99.90;;;;;;5063316;28;20044;-75
2022/06/29 02:53:28;;;;;;;0.00;0.00;;;14.60;99.90;;;;;;5061364;28;20047;-74
2022/06/29 02:55:54;;;;;;;0.30;0.20;;;14.50;99.90;;;;;;5061905;28;20055;-75
2022/06/29 02:58:20;;;;;;;0.10;0.10;;;14.50;99.90;;;;;;5062207;28;20722;-74
2022/06/29 03:00:45;;;;;;;0.00;0.00;;;14.40;99.90;;;;;;5064294;28;20136;-75
2022/06/29 03:03:11;;;;;;;0.03;0.03;;;14.40;99.90;;;;;;5065152;28;20029;-76
2022/06/29 03:05:37;;;;;;;0.03;0.03;;;14.30;99.90;;;;;;5062469;28;20491;-75
2022/06/29 03:08:03;;;;;;;0.10;0.10;;;14.20;99.90;;;;;;5061956;28;20594;-75
2022/06/29 03:10:28;;;;;;;0.15;0.15;;;14.10;99.90;;;;;;5062535;28;20032;-75
2022/06/29 03:12:54;;;;;;;0.15;0.10;;;13.90;99.90;;;;;;5062210;28;20058;-75
2022/06/29 03:15:20;;;;;;;0.10;0.10;;;13.90;99.90;;;;;;5065814;28;20499;-74
2022/06/29 03:17:45;;;;;;;0.00;0.00;;;13.90;99.90;;;;;;5062138;28;20446;-75
2022/06/29 03:20:13;;;;;;;0.00;0.00;;;13.80;99.90;;;;;;5063152;28;20076;-75
2022/06/29 03:22:39;;;;;;;0.00;0.00;;;13.80;99.90;;;;;;5061552;28;20467;-75
2022/06/29 03:25:05;;;;;;;0.08;0.08;;;13.70;99.90;;;;;;5061557;28;20033;-74
2022/06/29 03:27:32;;;;;;;0.20;0.20;;;13.70;99.90;;;;;;5063498;28;20558;-74
2022/06/29 03:29:58;;;;;;;;;;;13.70;99.90;;;;;;5064825;28;20028;-74
2022/06/29 03:32:23;;;;;;;0.30;0.30;;;13.60;99.90;;;;;;5061702;28;19919;-74
2022/06/29 03:34:49;;;;;;;0.10;0.10;;;13.60;99.90;;;;;;5062873;28;20567;-74
2022/06/29 03:37:15;;;;;;;0.00;0.00;;;13.60;99.90;;;;;;5061142;28;20047;-74
2022/06/29 03:39:42;;;;;;;0.10;0.10;;;13.60;99.90;;;;;;5062901;28;20074;-74
2022/06/29 03:42:07;;;;;;;1.58;1.48;;;13.60;99.90;;;;;;5061742;28;20024;-74
2022/06/29 03:44:33;;;;;;;0.10;0.10;;;13.60;99.90;;;;;;5060860;28;20046;-74
2022/06/29 03:46:59;;;;;;;0.03;0.03;;;13.60;99.90;;;;;;5060640;28;20111;-74
2022/06/29 03:49:24;;;;;;;0.10;0.10;;;13.40;99.90;;;;;;5061230;28;20034;-75
2022/06/29 03:51:50;;;;;;;0.10;0.10;;;13.40;99.90;;;;;;5061890;28;20568;-73
2022/06/29 03:54:16;;;;;;;0.00;0.00;;;13.40;99.90;;;;;;5062415;28;20060;-74
2022/06/29 03:56:41;;;;;;;0.10;0.10;;;13.30;99.90;;;;;;5058845;28;20625;-74
2022/06/29 03:59:07;;;;;;;0.10;0.10;;;13.30;99.90;;;;;;5059990;28;20043;-74
2022/06/29 04:01:33;;;;;;;0.00;0.00;;;13.30;99.90;;;;;;5060552;28;20033;-74
2022/06/29 04:03:58;;;;;;;0.10;0.10;;;13.20;99.90;;;;;;5062188;28;20734;-75
2022/06/29 04:06:24;;;;;;;0.15;0.15;;;13.20;99.90;;;;;;5064618;28;20113;-74
2022/06/29 04:08:50;;;;;;;0.20;0.20;;;13.20;99.90;;;;;;5069321;28;20032;-73
2022/06/29 04:14:00;;;;;;;0.22;0.22;;;13.20;99.90;;;;;;5060010;28;20055;-74
2022/06/29 04:16:25;;;;;;;0.10;0.10;;;13.20;99.90;;;;;;5060034;28;20503;-74
2022/06/29 04:18:51;;;;;;;0.15;0.15;;;13.10;99.90;;;;;;5060364;28;20482;-74
2022/06/29 04:21:17;;;;;;;0.03;0.03;;;13.10;99.90;;;;;;5078866;28;20131;-74
2022/06/29 04:23:43;;;;;;;0.10;0.10;;;13.30;99.90;;;;;;5060472;28;20090;-74
2022/06/29 04:26:08;;;;;;;0.25;0.25;;;13.80;99.90;;;;;;5061029;28;20571;-75
2022/06/29 04:28:34;;;;;;;0.10;0.10;;;14.30;99.90;;;;;;5059832;28;20038;-74
2022/06/29 04:31:01;;;;;;;0.10;0.10;;;14.70;99.90;;;;;;5060559;28;20516;-75
2022/06/29 04:33:26;;;;;;;0.17;0.17;;;15.10;99.90;;;;;;5063443;28;20032;-74
2022/06/29 04:35:52;;;;;;;0.50;0.50;;;15.20;99.90;;;;;;5060187;28;20032;-75
2022/06/29 04:38:18;;;;;;;0.50;0.50;;;15.60;99.90;;;;;;5053775;28;20122;-75
2022/06/29 04:40:43;;;;;;;0.08;0.08;;;15.80;99.90;;;;;;5050161;28;20025;-75
2022/06/29 04:43:09;;;;;;;0.10;0.10;;;16.00;99.90;;;;;;5051487;28;20032;-75
2022/06/29 04:48:19;;;;;;;0.63;0.63;;;16.00;99.90;;;;;;5052990;28;20044;-76
2022/06/29 04:50:45;;;;;;;0.10;0.10;;;15.60;99.90;;;;;;5051079;28;20032;-77
2022/06/29 04:53:10;;;;;;;0.00;0.00;;;15.70;99.90;;;;;;5051354;28;20032;-77
2022/06/29 04:55:36;;;;;;;0.00;0.00;;;14.80;99.90;;;;;;5051827;28;20118;-77
2022/06/29 04:58:02;;;;;;;0.00;0.00;;;14.60;99.90;;;;;;5052220;28;20036;-75
2022/06/29 05:00:27;;;;;;;0.10;0.10;;;15.20;99.90;;;;;;5084936;28;20050;-76
2022/06/29 05:02:53;;;;;;;0.13;0.13;;;15.10;99.90;;;;;;5051440;28;20024;-78
2022/06/29 05:05:19;;;;;;;0.20;0.20;;;16.10;99.90;;;;;;5059288;28;20036;-78
2022/06/29 05:07:45;;;;;;;0.20;0.13;;;15.60;99.90;;;;;;5057997;28;20028;-79
2022/06/29 05:10:11;;;;;;;0.55;0.55;;;16.20;99.90;;;;;;5059824;28;20037;-80
2022/06/29 05:12:38;;;;;;;0.00;0.00;;;16.60;99.90;;;;;;5061810;28;20078;-83
2022/06/29 05:15:06;;;;;;;0.10;0.10;;;16.70;99.90;;;;;;5059799;28;20035;-82
2022/06/29 05:17:36;;;;;;;0.00;0.00;;;17.10;99.90;;;;;;5059915;28;20403;-84
2022/06/29 05:20:06;;;;;;;0.45;0.45;;;17.10;99.90;;;;;;5060094;28;20060;-78
2022/06/29 05:22:32;;;;;;;0.10;0.00;;;17.30;99.90;;;;;;5059347;28;20124;-79
2022/06/29 05:24:58;;;;;;;0.00;0.00;;;17.70;99.90;;;;;;5060440;28;20115;-79
2022/06/29 05:27:23;;;;;;;0.10;0.10;;;17.90;99.90;;;;;;5059965;28;20029;-78
2022/06/29 05:29:49;;;;;;;3.63;1.13;;;17.90;99.90;;;;;;5055255;28;20036;-78
2022/06/29 05:32:15;;;;;;;0.00;0.00;;;18.30;99.90;;;;;;5055139;28;20166;-78
2022/06/29 05:34:40;;;;;;;0.07;0.07;;;18.50;99.90;;;;;;5066265;28;20035;-78
2022/06/29 05:37:06;;;;;;;0.60;0.07;;;18.60;99.90;;;;;;5060270;28;20036;-78
2022/06/29 05:39:32;;;;;;;0.10;0.10;;;19.90;99.90;;;;;;5062900;28;20041;-78
2022/06/29 05:41:57;;;;;;;0.50;0.40;;;20.50;99.90;;;;;;5061647;28;20025;-79
2022/06/29 05:44:23;;;;;;;0.10;0.10;;;20.70;99.90;;;;;;5060774;28;20392;-79
2022/06/29 05:46:49;;;;;;;0.00;0.00;;;20.70;99.90;;;;;;5060472;28;20396;-78
2022/06/29 05:49:15;;;;;;;0.00;0.00;;;21.20;96.70;;;;;;5060544;28;20057;-84
2022/06/29 05:51:40;;;;;;;0.00;0.00;;;21.30;97.40;;;;;;5060791;28;20282;-82
2022/06/29 05:54:07;;;;;;;0.00;0.00;;;21.40;94.30;;;;;;5061434;28;20024;-80
2022/06/29 05:56:33;;;;;;;;;;;21.60;93.30;;;;;;5060412;28;20040;-81
2022/06/29 05:58:58;;;;;;;0.10;0.10;;;22.40;91.80;;;;;;5059325;28;20394;-80
2022/06/29 06:01:24;;;;;;;0.00;0.00;;;22.50;90.20;;;;;;5058088;28;20040;-79
2022/06/29 06:03:50;;;;;;;0.10;0.10;;;22.20;90.30;;;;;;5062151;28;20032;-80
2022/06/29 06:06:16;;;;;;;0.00;0.00;;;22.70;86.20;;;;;;5064462;28;20032;-78
2022/06/29 06:08:41;;;;;;;0.00;0.00;;;23.20;84.60;;;;;;5063245;28;20024;-81
2022/06/29 06:11:07;;;;;;;0.00;0.00;;;22.80;83.10;;;;;;5063411;28;20484;-78
2022/06/29 06:13:33;;;;;;;0.07;0.07;;;23.10;81.90;;;;;;5063410;28;20282;-77
2022/06/29 06:15:59;;;;;;;0.10;0.10;;;23.40;80.90;;;;;;5062373;28;20040;-77
2022/06/29 06:18:25;;;;;;;0.00;0.00;;;23.60;79.60;;;;;;5064588;28;20311;-77
2022/06/29 06:20:50;;;;;;;0.00;0.00;;;24.00;79.00;;;;;;5062615;28;20081;-77
2022/06/29 06:23:16;;;;;;;0.00;0.00;;;24.40;73.50;;;;;;5063233;28;20397;-78
2022/06/29 06:25:42;;;;;;;0.70;0.60;;;24.00;76.80;;;;;;5063426;28;20776;-78
2022/06/29 06:28:08;;;;;;;0.00;0.00;;;24.10;77.90;;;;;;5063028;28;20044;-77
2022/06/29 06:30:34;;;;;;;0.00;0.00;;;24.70;74.90;;;;;;5064240;28;20032;-77
2022/06/29 06:32:59;;;;;;;0.10;0.10;;;25.10;72.20;;;;;;5063559;28;20339;-78
2022/06/29 06:35:25;;;;;;;0.05;0.03;;;25.10;71.50;;;;;;5063836;28;20310;-78
2022/06/29 06:37:52;;;;;;;0.95;0.43;;;25.10;71.60;;;;;;5061511;28;20131;-77
2022/06/29 06:43:02;;;;;;;0.08;0.08;;;25.00;69.70;;;;;;5058773;28;20047;-77
2022/06/29 06:45:28;;;;;;;0.00;0.00;;;25.30;68.20;;;;;;5064047;28;20032;-77
2022/06/29 06:47:54;;;;;;;0.00;0.00;;;25.50;68.50;;;;;;5060779;28;20034;-79
2022/06/29 06:50:20;;;;;;;0.00;0.00;;;25.40;67.60;;;;;;5062736;28;20040;-79
2022/06/29 06:52:46;;;;;;;0.20;0.20;;;25.60;70.10;;;;;;5061617;28;20029;-79
2022/06/29 06:55:13;;;;;;;0.17;0.00;;;26.60;68.60;;;;;;5062296;28;20028;-79
2022/06/29 06:57:39;;;;;;;0.30;0.20;;;26.60;64.70;;;;;;5061392;28;20477;-86
2022/06/29 07:00:05;;;;;;;0.00;0.00;;;27.20;64.40;;;;;;5062939;28;20156;-86
2022/06/29 07:02:31;;;;;;;0.00;0.00;;;27.20;63.30;;;;;;5063347;28;20111;-87
2022/06/29 07:04:57;;;;;;;0.00;0.00;;;27.50;61.40;;;;;;5061596;28;20120;-86
2022/06/29 07:07:23;;;;;;;0.00;0.00;;;27.90;61.30;;;;;;5064257;28;20108;-87
2022/06/29 07:09:48;;;;;;;0.00;0.00;;;28.10;60.30;;;;;;5062931;28;20029;-87
2022/06/29 07:12:14;;;;;;;0.00;0.00;;;28.60;60.30;;;;;;5065610;28;20040;-87
2022/06/29 07:14:40;;;;;;;0.20;0.10;;;28.60;61.00;;;;;;5062952;28;20028;-86
2022/06/29 07:17:06;;;;;;;;;;;28.90;60.90;;;;;;5061999;28;20036;-86
2022/06/29 07:19:31;;;;;;;0.05;0.05;;;28.50;61.60;;;;;;5062296;28;20438;-87
2022/06/29 07:21:57;;;;;;;;;;;29.20;58.90;;;;;;5062492;28;20021;-86
2022/06/29 07:24:23;;;;;;;0.00;0.00;;;28.70;58.60;;;;;;5063511;28;19917;-87
2022/06/29 07:26:48;;;;;;;;;;;29.20;59.40;;;;;;5061705;28;20494;-86
2022/06/29 07:29:14;;;;;;;0.00;0.00;;;29.70;57.10;;;;;;5059891;28;19926;-86
2022/06/29 07:31:39;;;;;;;;;;;30.00;55.40;;;;;;5063287;28;20025;-86
2022/06/29 07:34:05;;;;;;;0.00;0.00;;;30.20;55.10;;;;;;5062629;28;19912;-87
2022/06/29 07:36:31;;;;;;;0.28;0.20;;;30.70;55.00;;;;;;5063829;28;20036;-87
2022/06/29 07:38:57;;;;;;;0.10;0.10;;;30.90;55.10;;;;;;5063849;28;20090;-87
2022/06/29 07:41:23;;;;;;;0.00;0.00;;;31.20;53.60;;;;;;5062165;28;20028;-87
2022/06/29 07:43:48;;;;;;;0.00;0.00;;;30.40;54.20;;;;;;5061807;28;20031;-88
2022/06/29 07:46:14;;;;;;;0.00;0.00;;;31.00;53.60;;;;;;5061916;28;20065;-87
2022/06/29 07:48:40;;;;;;;0.10;0.10;;;31.20;53.00;;;;;;5062903;28;20016;-86
2022/06/29 07:51:06;;;;;;;0.00;0.00;;;31.50;52.50;;;;;;5055223;28;20044;-89
2022/06/29 07:53:31;;;;;;;0.43;0.43;;;31.80;52.70;;;;;;5057921;28;20675;-87
2022/06/29 07:55:57;;;;;;;0.30;0.30;;;32.30;52.50;;;;;;5061066;28;20093;-87
2022/06/29 07:58:23;;;;;;;0.00;0.00;;;33.30;51.90;;;;;;5056558;28;20503;-87
2022/06/29 08:00:49;;;;;;;0.00;0.00;;;33.00;51.60;;;;;;5061650;28;20453;-86
2022/06/29 08:03:15;;;;;;;0.00;0.00;;;32.70;51.60;;;;;;5063724;28;20012;-88
2022/06/29 08:05:41;;;;;;;0.00;0.00;;;32.70;50.00;;;;;;5049896;28;20099;-87
2022/06/29 08:08:07;;;;;;;0.00;0.00;;;33.50;52.50;;;;;;5047202;28;20078;-88
2022/06/29 08:10:34;;;;;;;0.00;0.00;;;33.40;50.20;;;;;;5059943;28;20028;-87
2022/06/29 08:13:00;;;;;;;0.00;0.00;;;33.00;50.00;;;;;;5063269;28;20036;-86
2022/06/29 08:15:27;;;;;;;0.00;0.00;;;33.80;49.90;;;;;;5064652;28;20404;-87
2022/06/29 08:17:52;;;;;;;0.47;0.20;;;34.00;49.40;;;;;;5062436;28;20025;-86
2022/06/29 08:20:19;;;;;;;0.00;0.00;;;34.00;49.70;;;;;;5062489;28;20516;-87
2022/06/29 08:22:45;;;;;;;0.00;0.00;;;33.40;51.10;;;;;;5048997;28;20032;-87
2022/06/29 08:25:11;;;;;;;0.00;0.00;;;33.90;47.70;;;;;;5044558;28;20032;-86
2022/06/29 08:27:37;;;;;;;0.03;0.03;;;34.00;48.50;;;;;;5045767;28;20021;-85
2022/06/29 08:30:03;;;;;;;0.00;0.00;;;33.80;48.50;;;;;;5061064;28;20033;-86
2022/06/29 08:32:29;;;;;;;3.30;0.55;;;33.80;48.30;;;;;;5061200;28;20039;-87
2022/06/29 08:34:59;;;;;;;0.17;0.08;;;35.10;48.20;;;;;;5062114;28;20032;-86
2022/06/29 08:37:26;;;;;;;0.00;0.00;;;34.70;45.90;;;;;;5060371;28;20031;-86
2022/06/29 08:39:51;;;;;;;0.00;0.00;;;34.60;45.80;;;;;;5060879;28;20040;-86
2022/06/29 08:42:23;;;;;;;0.00;0.00;;;34.50;45.50;;;;;;5062767;28;20024;-87
2022/06/29 08:44:49;;;;;;;0.00;0.00;;;35.10;47.20;;;;;;5060405;28;20028;-93
2022/06/29 08:47:16;;;;;;;0.00;0.00;;;35.40;44.10;;;;;;5059735;28;20496;-88
2022/06/29 08:49:44;;;;;;;0.00;0.00;;;35.60;44.30;;;;;;5060669;28;20085;-87
2022/06/29 08:52:10;;;;;;;0.00;0.00;;;35.30;43.30;;;;;;5060196;28;20033;-87
2022/06/29 08:54:43;;;;;;;0.00;0.00;;;36.20;44.00;;;;;;5062157;28;20047;-86
2022/06/29 08:57:09;;;;;;;0.00;0.00;;;35.50;42.60;;;;;;5061107;28;20082;-87
2022/06/29 08:59:35;;;;;;;0.00;0.00;;;36.60;40.50;;;;;;5059780;28;20384;-87
2022/06/29 09:02:01;;;;;;;0.00;0.00;;;37.10;40.30;;;;;;5061164;28;20407;-87
2022/06/29 09:04:27;;;;;;;0.43;0.43;;;37.10;39.80;;;;;;5059941;28;20039;-88
2022/06/29 09:06:54;;;;;;;0.00;0.00;;;37.30;41.40;;;;;;5060578;28;20025;-87
2022/06/29 09:09:21;;;;;;;0.35;0.35;;;37.40;41.60;;;;;;5062487;28;20607;-88
2022/06/29 09:11:50;;;;;;;0.30;0.20;;;37.20;42.20;;;;;;5061043;28;20020;-87
2022/06/29 09:14:21;;;;;;;0.00;0.00;;;37.50;40.90;;;;;;5059465;28;20047;-87
2022/06/29 09:16:59;;;;;;;0.00;0.00;;;37.30;39.40;;;;;;5059342;28;20526;-87
2022/06/29 09:19:29;;;;;;;0.43;0.13;;;37.00;39.90;;;;;;5055782;28;20049;-87
2022/06/29 09:21:57;;;;;;;0.00;0.00;;;36.50;40.70;;;;;;5058547;28;20220;-87
2022/06/29 09:24:35;;;;;;;0.40;0.20;;;36.20;40.40;;;;;;5063029;28;20024;-87
2022/06/29 09:27:06;;;;;;;0.10;0.00;;;37.20;41.10;;;;;;5062108;28;20036;-88
2022/06/29 09:29:42;;;;;;;0.15;0.15;;;37.30;39.70;;;;;;5059421;28;20066;-87
2022/06/29 09:32:14;;;;;;;0.00;0.00;;;37.20;41.30;;;;;;5059726;28;20390;-88
2022/06/29 09:34:44;;;;;;;0.03;0.00;;;36.00;41.90;;;;;;5051424;28;20032;-87
2022/06/29 09:37:14;;;;;;;0.00;0.00;;;37.30;41.50;;;;;;5059394;28;20033;-87
2022/06/29 09:39:47;;;;;;;0.00;0.00;;;38.70;38.90;;;;;;5062038;28;20080;-88
2022/06/29 09:42:21;;;;;;;0.80;0.13;;;36.70;42.50;;;;;;5067582;28;20492;-89
2022/06/29 09:44:48;;;;;;;0.07;0.00;;;37.20;40.10;;;;;;5064947;28;20563;-88
2022/06/29 09:47:20;;;;;;;0.13;0.10;;;36.10;39.20;;;;;;5064303;28;20118;-90
2022/06/29 09:49:53;;;;;;;0.10;0.10;;;36.60;38.90;;;;;;5066458;28;20115;-88
2022/06/29 09:52:19;;;;;;;0.00;0.00;;;37.00;39.30;;;;;;5063735;28;20766;-87
2022/06/29 09:54:51;;;;;;;0.05;0.00;;;36.80;40.00;;;;;;5064601;28;20021;-89
2022/06/29 09:57:20;;;;;;;0.00;0.00;;;37.00;40.10;;;;;;5058167;28;20271;-88
2022/06/29 10:02:52;;;;;;;0.00;0.00;;;37.50;38.40;;;;;;5064684;28;20045;-88
2022/06/29 10:05:22;;;;;;;4.28;0.35;;;37.80;36.30;;;;;;5062166;28;20044;-87
2022/06/29 10:07:53;;;;;;;0.00;0.00;;;37.20;37.70;;;;;;5064865;28;20111;-88
2022/06/29 10:10:28;;;;;;;0.00;0.00;;;38.30;37.20;;;;;;5064471;28;20466;-87
2022/06/29 10:16:27;;;;;;;0.10;0.10;;;37.00;36.20;;;;;;5064594;28;20832;-87
2022/06/29 10:19:14;;;;;;;0.00;0.00;;;36.80;34.50;;;;;;5063453;28;20171;-87
2022/06/29 10:21:40;;;;;;;0.10;0.10;;;37.70;35.40;;;;;;5062641;28;20433;-87
2022/06/29 10:24:05;;;;;;;;;;;38.10;34.50;;;;;;5075413;28;20024;-88
2022/06/29 10:26:32;;;;;;;10.43;1.75;;;38.40;35.80;;;;;;5062793;28;19913;-88
2022/06/29 10:29:09;;;;;;;0.43;0.43;;;38.20;36.00;;;;;;5063421;28;20108;-88
2022/06/29 10:32:02;;;;;;;0.00;0.00;;;37.90;37.00;;;;;;5054283;28;20036;-87
2022/06/29 10:34:31;;;;;;;0.00;0.00;;;36.50;35.30;;;;;;5063236;28;20594;-87
2022/06/29 10:37:02;;;;;;;0.00;0.00;;;36.90;36.30;;;;;;5058008;28;20054;-88
2022/06/29 10:39:49;;;;;;;0.30;0.20;;;36.80;39.10;;;;;;5062565;28;20586;-87
2022/06/29 10:45:08;;;;;;;0.00;0.00;;;33.50;37.70;;;;;;5066059;28;20048;-86
2022/06/29 10:47:34;;;;;;;0.00;0.00;;;30.90;41.60;;;;;;5062165;28;20040;-87
2022/06/29 10:50:24;;;;;;;0.00;0.00;;;30.50;41.70;;;;;;5061996;28;20024;-87
2022/06/29 10:53:10;;;;;;;0.00;0.00;;;30.30;43.10;;;;;;5058626;28;20029;-87
2022/06/29 10:55:37;;;;;;;;;;;30.10;42.80;;;;;;5060951;28;20028;-86
2022/06/29 10:58:03;;;;;;;0.00;0.00;;;29.70;43.90;;;;;;5061996;28;19916;-87
2022/06/29 11:00:34;;;;;;;0.13;0.13;;;29.80;43.10;;;;;;5062768;28;20043;-87
2022/06/29 11:03:09;;;;;;;0.20;0.20;;;29.70;44.80;;;;;;5062000;28;20487;-88
2022/06/29 11:05:35;;;;;;;0.10;0.10;;;29.40;42.70;;;;;;5062116;28;20036;-88
2022/06/29 11:13:30;;;;;;;0.00;0.00;;;27.80;43.00;;;;;;5064450;28;20116;-88
2022/06/29 11:15:57;;;;;;;0.00;0.00;;;27.80;42.90;;;;;;5062462;28;20028;-88
2022/06/29 11:18:32;;;;;;;0.10;0.10;;;27.50;44.00;;;;;;5064313;28;20139;-87
2022/06/29 11:21:03;;;;;;;0.00;0.00;;;27.60;45.10;;;;;;5060595;28;20060;-89
2022/06/29 11:23:33;;;;;;;0.30;0.30;;;27.80;47.70;;;;;;5062220;28;20025;-88
2022/06/29 11:26:00;;;;;;;0.10;0.10;;;28.30;49.40;;;;;;5061277;28;20060;-86
2022/06/29 11:28:28;;;;;;;0.00;0.00;;;28.60;48.10;;;;;;5063844;28;20111;-88
2022/06/29 11:31:09;;;;;;;0.10;0.10;;;28.30;46.80;;;;;;5063437;28;20071;-87
2022/06/29 11:33:37;;;;;;;0.03;0.03;;;27.70;43.00;;;;;;5060754;28;20047;-86
2022/06/29 11:36:27;;;;;;;0.00;0.00;;;27.10;47.30;;;;;;5064089;28;20024;-87
2022/06/29 11:38:55;;;;;;;0.00;0.00;;;27.10;46.00;;;;;;5054128;28;20711;-87
2022/06/29 11:41:26;;;;;;;0.47;0.20;;;27.60;47.40;;;;;;5051738;28;20033;-86
2022/06/29 11:44:05;;;;;;;0.00;0.00;;;27.70;49.80;;;;;;5049769;28;20094;-87
2022/06/29 11:46:37;;;;;;;0.10;0.10;;;27.40;51.00;;;;;;5047125;28;20408;-87
2022/06/29 11:51:58;;;;;;;0.10;0.10;;;27.60;50.80;;;;;;5062108;28;20103;-87
2022/06/29 11:54:34;;;;;;;;;;;27.70;50.20;;;;;;5060681;28;20058;-85
2022/06/29 11:57:03;;;;;;;0.20;0.10;;;28.00;51.80;;;;;;5062840;28;20000;-85
2022/06/29 11:59:32;;;;;;;0.00;0.00;;;27.70;52.40;;;;;;5063090;28;20040;-79
2022/06/29 12:01:59;;;;;;;0.00;0.00;;;27.80;52.80;;;;;;5061256;28;20029;-78
2022/06/29 12:04:32;;;;;;;0.00;0.00;;;27.90;52.10;;;;;;5060474;28;20781;-79
2022/06/29 12:07:17;;;;;;;0.00;0.00;;;28.10;54.40;;;;;;5056673;28;20096;-79
2022/06/29 12:09:50;;;;;;;0.00;0.00;;;28.00;52.70;;;;;;5054710;28;20040;-79
2022/06/29 12:12:17;;;;;;;9.52;0.57;;;27.50;52.50;;;;;;5064371;28;20060;-79
2022/06/29 12:14:43;;;;;;;;;;;27.50;53.60;;;;;;5057362;28;20032;-79
2022/06/29 12:17:09;;;;;;;;;;;27.50;51.70;;;;;;5061894;28;19916;-79
2022/06/29 12:19:35;;;;;;;0.00;0.00;;;27.80;53.50;;;;;;5060564;28;20465;-78
2022/06/29 12:22:01;;;;;;;0.00;0.00;;;27.80;50.10;;;;;;5060634;28;20033;-79
2022/06/29 12:24:29;;;;;;;0.00;0.00;;;27.50;50.50;;;;;;5064140;28;20424;-79
2022/06/29 12:26:55;;;;;;;0.00;0.00;;;27.60;53.30;;;;;;5061017;28;20056;-79
2022/06/29 12:29:20;;;;;;;0.22;0.10;;;27.40;51.20;;;;;;5060384;28;20565;-78
2022/06/29 12:31:47;;;;;;;0.00;0.00;;;27.40;53.60;;;;;;5060835;28;20032;-79
2022/06/29 12:34:13;;;;;;;;;;;27.50;53.50;;;;;;5060987;28;20563;-79
2022/06/29 12:36:40;;;;;;;0.10;0.10;;;27.70;52.40;;;;;;5062637;28;19915;-78
2022/06/29 12:39:06;;;;;;;0.10;0.10;;;27.60;54.80;;;;;;5061457;28;20036;-79
2022/06/29 12:41:32;;;;;;;0.20;0.20;;;27.10;51.50;;;;;;5060413;28;20036;-78
2022/06/29 12:43:59;;;;;;;0.03;0.03;;;26.90;57.40;;;;;;5061709;28;20044;-79
2022/06/29 12:46:29;;;;;;;0.10;0.05;;;27.10;54.10;;;;;;5060237;28;20415;-79
2022/06/29 12:48:55;;;;;;;0.20;0.20;;;27.00;52.10;;;;;;5060533;28;20033;-78
2022/06/29 12:51:21;;;;;;;0.10;0.10;;;26.70;55.20;;;;;;5049994;28;20032;-79
2022/06/29 12:53:47;;;;;;;0.00;0.00;;;27.00;58.00;;;;;;5047749;28;20052;-81
2022/06/29 12:56:13;;;;;;;0.00;0.00;;;27.00;54.30;;;;;;5061091;28;20044;-79
2022/06/29 12:58:39;;;;;;;12.35;0.80;;;27.30;54.60;;;;;;5063100;28;20431;-89
2022/06/29 13:01:05;;;;;;;0.00;0.00;;;26.90;54.70;;;;;;5061022;28;20040;-88
2022/06/29 13:03:31;;;;;;;0.10;0.10;;;26.70;52.70;;;;;;5063747;28;20808;-89
2022/06/29 13:05:57;;;;;;;0.00;0.00;;;26.90;56.50;;;;;;5064146;28;20024;-90
2022/06/29 13:08:22;;;;;;;1.03;0.33;;;27.00;51.30;;;;;;5063963;28;20020;-87
2022/06/29 13:10:48;;;;;;;2.45;0.30;;;26.90;51.90;;;;;;5060725;28;20275;-88
2022/06/29 13:13:14;;;;;;;0.10;0.10;;;26.90;53.10;;;;;;5060781;28;20048;-88
2022/06/29 13:15:40;;;;;;;0.00;0.00;;;26.80;54.20;;;;;;5061477;28;20530;-88
2022/06/29 13:18:05;;;;;;;0.37;0.37;;;27.00;56.00;;;;;;5061392;28;20119;-88
2022/06/29 13:20:31;;;;;;;0.00;0.00;;;26.90;54.60;;;;;;5060744;28;20040;-89
2022/06/29 13:22:57;;;;;;;0.30;0.30;;;26.70;56.80;;;;;;5060481;28;20290;-89
2022/06/29 13:25:22;;;;;;;0.00;0.00;;;26.60;54.50;;;;;;5061257;28;20521;-88